Terminal Aerodrome Forecast
Issued by NWS

Home | Current Version | Previous Version | Text Only | Print | Product List | Glossary On
Versions: 1 2 3 4 5 6 7 8 9 10 11 12 13 14 15 16 17 18 19 20 21 22 23 24 25
876
FTAK31 PANC 110535
TAFAHO
TAF
PAHO 110535Z 1106/1206 05009KT P6SM BKN050 OVC100
     FM111000 05012KT P6SM -SHRASN SCT030 OVC050
     FM111800 08008KT P6SM VCSH FEW025 OVC050
      AMD NOT SKED=

USA.gov is the U.S. government's official web portal to all federal, state and local government web resources and services.